sensor_id;sensor_type;location;lat;lon;timestamp;temperature;humidity
12622;DHT22;6376;48.182;-1.644;2023-03-01T00:01:14;10.40;69.20
12622;DHT22;6376;48.182;-1.644;2023-03-01T00:03:41;10.40;69.20
12622;DHT22;6376;48.182;-1.644;2023-03-01T00:06:07;10.40;69.30
12622;DHT22;6376;48.182;-1.644;2023-03-01T00:08:33;10.30;69.20
12622;DHT22;6376;48.182;-1.644;2023-03-01T00:11:01;10.30;69.10
12622;DHT22;6376;48.182;-1.644;2023-03-01T00:13:27;10.30;69.30
12622;DHT22;6376;48.182;-1.644;2023-03-01T00:15:53;10.30;69.20
12622;DHT22;6376;48.182;-1.644;2023-03-01T00:18:18;10.30;69.20
12622;DHT22;6376;48.182;-1.644;2023-03-01T00:20:54;10.30;69.20
12622;DHT22;6376;48.182;-1.644;2023-03-01T00:23:21;10.20;70.00
12622;DHT22;6376;48.182;-1.644;2023-03-01T00:25:47;10.20;69.20
12622;DHT22;6376;48.182;-1.644;2023-03-01T00:28:12;10.20;69.10
12622;DHT22;6376;48.182;-1.644;2023-03-01T00:30:38;10.20;69.10
12622;DHT22;6376;48.182;-1.644;2023-03-01T00:33:04;10.20;69.20
12622;DHT22;6376;48.182;-1.644;2023-03-01T00:35:32;10.20;69.20
12622;DHT22;6376;48.182;-1.644;2023-03-01T00:37:57;10.20;69.10
12622;DHT22;6376;48.182;-1.644;2023-03-01T00:40:24;10.10;69.10
12622;DHT22;6376;48.182;-1.644;2023-03-01T00:42:50;10.10;69.10
12622;DHT22;6376;48.182;-1.644;2023-03-01T00:45:16;10.10;69.10
12622;DHT22;6376;48.182;-1.644;2023-03-01T00:47:41;10.10;69.10
12622;DHT22;6376;48.182;-1.644;2023-03-01T00:50:08;10.10;69.10
12622;DHT22;6376;48.182;-1.644;2023-03-01T00:52:34;10.10;69.10
12622;DHT22;6376;48.182;-1.644;2023-03-01T00:55:00;10.10;69.10
12622;DHT22;6376;48.182;-1.644;2023-03-01T00:57:25;10.00;69.00
12622;DHT22;6376;48.182;-1.644;2023-03-01T00:59:51;10.00;68.90
12622;DHT22;6376;48.182;-1.644;2023-03-01T01:02:18;10.00;69.00
12622;DHT22;6376;48.182;-1.644;2023-03-01T01:04:44;10.00;68.90
12622;DHT22;6376;48.182;-1.644;2023-03-01T01:07:10;10.00;68.90
12622;DHT22;6376;48.182;-1.644;2023-03-01T01:09:35;10.00;68.90
12622;DHT22;6376;48.182;-1.644;2023-03-01T01:12:02;10.00;68.90
12622;DHT22;6376;48.182;-1.644;2023-03-01T01:14:28;10.00;68.90
12622;DHT22;6376;48.182;-1.644;2023-03-01T01:16:54;10.00;68.90
12622;DHT22;6376;48.182;-1.644;2023-03-01T01:19:20;9.90;68.90
12622;DHT22;6376;48.182;-1.644;2023-03-01T01:21:46;9.90;68.80
12622;DHT22;6376;48.182;-1.644;2023-03-01T01:24:14;9.90;68.80
12622;DHT22;6376;48.182;-1.644;2023-03-01T01:26:40;9.90;68.80
12622;DHT22;6376;48.182;-1.644;2023-03-01T01:29:06;9.90;68.80
12622;DHT22;6376;48.182;-1.644;2023-03-01T01:31:33;9.90;68.80
12622;DHT22;6376;48.182;-1.644;2023-03-01T01:34:01;9.90;68.70
12622;DHT22;6376;48.182;-1.644;2023-03-01T01:36:27;9.90;68.70
12622;DHT22;6376;48.182;-1.644;2023-03-01T01:38:53;9.90;68.70
12622;DHT22;6376;48.182;-1.644;2023-03-01T01:41:19;9.90;68.60
12622;DHT22;6376;48.182;-1.644;2023-03-01T01:44:19;9.80;68.60
12622;DHT22;6376;48.182;-1.644;2023-03-01T01:52:16;9.80;68.70
12622;DHT22;6376;48.182;-1.644;2023-03-01T01:54:59;9.80;68.90
12622;DHT22;6376;48.182;-1.644;2023-03-01T01:57:37;9.80;68.80
12622;DHT22;6376;48.182;-1.644;2023-03-01T02:00:10;9.80;68.70
12622;DHT22;6376;48.182;-1.644;2023-03-01T02:02:37;9.80;68.60
12622;DHT22;6376;48.182;-1.644;2023-03-01T02:05:10;9.80;68.60
12622;DHT22;6376;48.182;-1.644;2023-03-01T02:07:38;9.80;68.60
12622;DHT22;6376;48.182;-1.644;2023-03-01T02:10:05;9.70;68.60
12622;DHT22;6376;48.182;-1.644;2023-03-01T02:12:31;9.70;68.60
12622;DHT22;6376;48.182;-1.644;2023-03-01T02:14:57;9.70;68.70
12622;DHT22;6376;48.182;-1.644;2023-03-01T02:17:23;9.70;68.60
12622;DHT22;6376;48.182;-1.644;2023-03-01T02:20:21;9.70;68.60
12622;DHT22;6376;48.182;-1.644;2023-03-01T02:22:48;9.70;68.60
12622;DHT22;6376;48.182;-1.644;2023-03-01T02:27:51;9.70;68.60
12622;DHT22;6376;48.182;-1.644;2023-03-01T02:30:21;9.70;68.60
12622;DHT22;6376;48.182;-1.644;2023-03-01T02:32:47;9.60;69.40
12622;DHT22;6376;48.182;-1.644;2023-03-01T02:35:16;9.60;68.60
12622;DHT22;6376;48.182;-1.644;2023-03-01T02:37:43;9.60;68.60
12622;DHT22;6376;48.182;-1.644;2023-03-01T02:40:14;9.60;68.50
12622;DHT22;6376;48.182;-1.644;2023-03-01T02:42:49;9.60;68.60
12622;DHT22;6376;48.182;-1.644;2023-03-01T02:45:16;9.60;68.50
12622;DHT22;6376;48.182;-1.644;2023-03-01T02:47:42;9.60;68.50
12622;DHT22;6376;48.182;-1.644;2023-03-01T02:55:27;9.60;68.50
12622;DHT22;6376;48.182;-1.644;2023-03-01T02:57:53;9.60;68.50
12622;DHT22;6376;48.182;-1.644;2023-03-01T03:00:26;9.50;68.40
12622;DHT22;6376;48.182;-1.644;2023-03-01T03:02:54;9.60;68.40
12622;DHT22;6376;48.182;-1.644;2023-03-01T03:05:28;9.50;68.40
12622;DHT22;6376;48.182;-1.644;2023-03-01T03:07:54;9.50;68.40
12622;DHT22;6376;48.182;-1.644;2023-03-01T03:10:33;9.50;68.40
12622;DHT22;6376;48.182;-1.644;2023-03-01T03:13:02;9.50;68.40
12622;DHT22;6376;48.182;-1.644;2023-03-01T03:15:28;9.50;68.30
12622;DHT22;6376;48.182;-1.644;2023-03-01T03:17:55;9.50;68.30
12622;DHT22;6376;48.182;-1.644;2023-03-01T03:20:23;9.50;68.30
12622;DHT22;6376;48.182;-1.644;2023-03-01T03:22:52;9.50;68.30
12622;DHT22;6376;48.182;-1.644;2023-03-01T03:25:19;9.40;68.20
12622;DHT22;6376;48.182;-1.644;2023-03-01T03:27:48;9.50;68.30
12622;DHT22;6376;48.182;-1.644;2023-03-01T03:30:17;9.40;68.30
12622;DHT22;6376;48.182;-1.644;2023-03-01T03:32:45;9.40;68.30
12622;DHT22;6376;48.182;-1.644;2023-03-01T03:35:25;9.40;68.20
12622;DHT22;6376;48.182;-1.644;2023-03-01T03:37:52;9.40;68.20
12622;DHT22;6376;48.182;-1.644;2023-03-01T03:40:45;9.40;68.20
12622;DHT22;6376;48.182;-1.644;2023-03-01T03:43:13;9.40;68.20
12622;DHT22;6376;48.182;-1.644;2023-03-01T03:45:39;9.40;68.20
12622;DHT22;6376;48.182;-1.644;2023-03-01T03:48:06;9.40;68.00
12622;DHT22;6376;48.182;-1.644;2023-03-01T03:50:33;9.40;68.00
12622;DHT22;6376;48.182;-1.644;2023-03-01T03:53:04;9.40;68.00
12622;DHT22;6376;48.182;-1.644;2023-03-01T03:55:29;9.40;68.00
12622;DHT22;6376;48.182;-1.644;2023-03-01T03:57:58;9.30;67.90
12622;DHT22;6376;48.182;-1.644;2023-03-01T04:00:27;9.30;67.80
12622;DHT22;6376;48.182;-1.644;2023-03-01T04:02:53;9.30;67.90
12622;DHT22;6376;48.182;-1.644;2023-03-01T04:05:22;9.30;67.80
12622;DHT22;6376;48.182;-1.644;2023-03-01T04:07:48;9.30;67.80
12622;DHT22;6376;48.182;-1.644;2023-03-01T04:10:16;9.30;67.80
12622;DHT22;6376;48.182;-1.644;2023-03-01T04:12:42;9.30;67.80
12622;DHT22;6376;48.182;-1.644;2023-03-01T04:15:09;9.30;67.70
12622;DHT22;6376;48.182;-1.644;2023-03-01T04:17:45;9.30;67.80
12622;DHT22;6376;48.182;-1.644;2023-03-01T04:20:13;9.30;67.80
12622;DHT22;6376;48.182;-1.644;2023-03-01T04:22:43;9.30;68.50
12622;DHT22;6376;48.182;-1.644;2023-03-01T04:25:09;9.30;67.70
12622;DHT22;6376;48.182;-1.644;2023-03-01T04:27:40;9.20;67.70
12622;DHT22;6376;48.182;-1.644;2023-03-01T04:30:06;9.30;67.70
12622;DHT22;6376;48.182;-1.644;2023-03-01T04:32:32;9.30;67.70
12622;DHT22;6376;48.182;-1.644;2023-03-01T04:34:58;9.20;67.50
12622;DHT22;6376;48.182;-1.644;2023-03-01T04:37:24;9.20;67.60
12622;DHT22;6376;48.182;-1.644;2023-03-01T04:39:50;9.20;67.60
12622;DHT22;6376;48.182;-1.644;2023-03-01T04:42:16;9.20;67.50
12622;DHT22;6376;48.182;-1.644;2023-03-01T04:44:42;9.20;67.50
12622;DHT22;6376;48.182;-1.644;2023-03-01T04:47:08;9.20;67.60
12622;DHT22;6376;48.182;-1.644;2023-03-01T04:49:34;9.20;67.50
12622;DHT22;6376;48.182;-1.644;2023-03-01T04:51:59;9.20;67.50
12622;DHT22;6376;48.182;-1.644;2023-03-01T04:54:31;9.20;67.50
12622;DHT22;6376;48.182;-1.644;2023-03-01T04:56:57;9.10;67.40
12622;DHT22;6376;48.182;-1.644;2023-03-01T04:59:23;9.10;67.40
12622;DHT22;6376;48.182;-1.644;2023-03-01T05:01:50;9.20;67.50
12622;DHT22;6376;48.182;-1.644;2023-03-01T05:04:16;9.10;67.40
12622;DHT22;6376;48.182;-1.644;2023-03-01T05:06:42;9.20;67.40
12622;DHT22;6376;48.182;-1.644;2023-03-01T05:09:08;9.10;67.40
12622;DHT22;6376;48.182;-1.644;2023-03-01T05:11:33;9.10;67.30
12622;DHT22;6376;48.182;-1.644;2023-03-01T05:14:05;9.10;67.30
12622;DHT22;6376;48.182;-1.644;2023-03-01T05:16:31;9.10;67.20
12622;DHT22;6376;48.182;-1.644;2023-03-01T05:18:57;9.10;67.30
12622;DHT22;6376;48.182;-1.644;2023-03-01T05:21:24;9.10;67.40
12622;DHT22;6376;48.182;-1.644;2023-03-01T05:23:49;9.10;67.20
12622;DHT22;6376;48.182;-1.644;2023-03-01T05:26:17;9.10;67.30
12622;DHT22;6376;48.182;-1.644;2023-03-01T05:28:43;9.10;67.20
12622;DHT22;6376;48.182;-1.644;2023-03-01T05:31:09;9.00;67.20
12622;DHT22;6376;48.182;-1.644;2023-03-01T05:33:38;9.00;67.20
12622;DHT22;6376;48.182;-1.644;2023-03-01T05:36:06;9.10;67.20
12622;DHT22;6376;48.182;-1.644;2023-03-01T05:38:32;9.10;67.20
12622;DHT22;6376;48.182;-1.644;2023-03-01T05:40:58;9.00;67.20
12622;DHT22;6376;48.182;-1.644;2023-03-01T05:43:24;9.00;67.20
12622;DHT22;6376;48.182;-1.644;2023-03-01T05:45:49;9.00;67.10
12622;DHT22;6376;48.182;-1.644;2023-03-01T05:48:15;9.00;67.10
12622;DHT22;6376;48.182;-1.644;2023-03-01T05:50:43;9.00;67.10
12622;DHT22;6376;48.182;-1.644;2023-03-01T05:53:18;9.00;67.10
12622;DHT22;6376;48.182;-1.644;2023-03-01T05:55:47;9.00;67.20
12622;DHT22;6376;48.182;-1.644;2023-03-01T05:58:15;9.00;67.10
12622;DHT22;6376;48.182;-1.644;2023-03-01T06:00:42;9.00;67.10
12622;DHT22;6376;48.182;-1.644;2023-03-01T06:03:14;9.00;67.10
12622;DHT22;6376;48.182;-1.644;2023-03-01T06:05:40;8.90;67.10
12622;DHT22;6376;48.182;-1.644;2023-03-01T06:08:06;9.00;67.10
12622;DHT22;6376;48.182;-1.644;2023-03-01T06:10:32;8.90;67.00
12622;DHT22;6376;48.182;-1.644;2023-03-01T06:12:58;8.90;67.10
12622;DHT22;6376;48.182;-1.644;2023-03-01T06:15:24;8.90;67.10
12622;DHT22;6376;48.182;-1.644;2023-03-01T06:17:50;8.90;67.00
12622;DHT22;6376;48.182;-1.644;2023-03-01T06:20:21;8.90;67.00
12622;DHT22;6376;48.182;-1.644;2023-03-01T06:22:48;8.90;66.90
12622;DHT22;6376;48.182;-1.644;2023-03-01T06:25:17;8.90;66.90
12622;DHT22;6376;48.182;-1.644;2023-03-01T06:27:44;8.90;66.90
12622;DHT22;6376;48.182;-1.644;2023-03-01T06:30:12;8.90;66.90
12622;DHT22;6376;48.182;-1.644;2023-03-01T06:32:39;8.90;66.90
12622;DHT22;6376;48.182;-1.644;2023-03-01T06:35:12;8.90;67.00
12622;DHT22;6376;48.182;-1.644;2023-03-01T06:37:39;8.90;66.80
12622;DHT22;6376;48.182;-1.644;2023-03-01T06:40:05;8.90;66.80
12622;DHT22;6376;48.182;-1.644;2023-03-01T06:42:38;8.90;66.80
12622;DHT22;6376;48.182;-1.644;2023-03-01T06:45:06;8.80;66.80
12622;DHT22;6376;48.182;-1.644;2023-03-01T06:47:32;8.90;66.80
12622;DHT22;6376;48.182;-1.644;2023-03-01T06:50:02;8.90;66.80
12622;DHT22;6376;48.182;-1.644;2023-03-01T06:52:28;8.90;66.80
12622;DHT22;6376;48.182;-1.644;2023-03-01T06:54:53;8.90;66.60
12622;DHT22;6376;48.182;-1.644;2023-03-01T06:57:19;8.80;66.70
12622;DHT22;6376;48.182;-1.644;2023-03-01T06:59:46;8.80;66.70
12622;DHT22;6376;48.182;-1.644;2023-03-01T07:02:13;8.80;66.70
12622;DHT22;6376;48.182;-1.644;2023-03-01T07:04:39;8.80;66.60
12622;DHT22;6376;48.182;-1.644;2023-03-01T07:07:05;8.80;66.60
12622;DHT22;6376;48.182;-1.644;2023-03-01T07:09:31;8.80;66.60
12622;DHT22;6376;48.182;-1.644;2023-03-01T07:11:57;8.80;66.60
12622;DHT22;6376;48.182;-1.644;2023-03-01T07:14:23;8.80;66.50
12622;DHT22;6376;48.182;-1.644;2023-03-01T07:16:51;8.80;66.50
12622;DHT22;6376;48.182;-1.644;2023-03-01T07:19:17;8.80;66.50
12622;DHT22;6376;48.182;-1.644;2023-03-01T07:21:42;8.80;66.50
12622;DHT22;6376;48.182;-1.644;2023-03-01T07:24:08;8.80;66.50
12622;DHT22;6376;48.182;-1.644;2023-03-01T07:26:34;8.80;66.50
12622;DHT22;6376;48.182;-1.644;2023-03-01T07:29:04;8.80;66.50
12622;DHT22;6376;48.182;-1.644;2023-03-01T07:31:30;8.80;66.40
12622;DHT22;6376;48.182;-1.644;2023-03-01T07:33:56;8.80;66.30
12622;DHT22;6376;48.182;-1.644;2023-03-01T07:36:23;8.80;66.40
12622;DHT22;6376;48.182;-1.644;2023-03-01T07:38:49;8.80;66.30
12622;DHT22;6376;48.182;-1.644;2023-03-01T07:41:14;8.80;66.30
12622;DHT22;6376;48.182;-1.644;2023-03-01T07:43:40;8.80;66.30
12622;DHT22;6376;48.182;-1.644;2023-03-01T07:46:06;8.80;66.30
12622;DHT22;6376;48.182;-1.644;2023-03-01T07:48:32;8.80;66.10
12622;DHT22;6376;48.182;-1.644;2023-03-01T07:50:59;8.80;66.10
12622;DHT22;6376;48.182;-1.644;2023-03-01T07:53:25;8.80;66.10
12622;DHT22;6376;48.182;-1.644;2023-03-01T07:56:01;8.90;65.50
12622;DHT22;6376;48.182;-1.644;2023-03-01T07:58:27;8.90;65.30
12622;DHT22;6376;48.182;-1.644;2023-03-01T08:18:46;8.90;64.90
12622;DHT22;6376;48.182;-1.644;2023-03-01T08:21:16;9.10;65.20
12622;DHT22;6376;48.182;-1.644;2023-03-01T08:23:42;9.30;64.50
12622;DHT22;6376;48.182;-1.644;2023-03-01T08:26:15;9.20;64.30
12622;DHT22;6376;48.182;-1.644;2023-03-01T08:28:42;9.10;65.10
12622;DHT22;6376;48.182;-1.644;2023-03-01T08:33:45;9.20;64.90
12622;DHT22;6376;48.182;-1.644;2023-03-01T08:36:16;9.30;64.30
12622;DHT22;6376;48.182;-1.644;2023-03-01T08:38:41;9.50;63.90
12622;DHT22;6376;48.182;-1.644;2023-03-01T08:41:07;10.00;62.90
12622;DHT22;6376;48.182;-1.644;2023-03-01T08:43:33;10.10;62.10
12622;DHT22;6376;48.182;-1.644;2023-03-01T08:45:58;10.50;61.10
12622;DHT22;6376;48.182;-1.644;2023-03-01T08:48:24;10.70;60.60
12622;DHT22;6376;48.182;-1.644;2023-03-01T08:50:50;10.70;60.30
12622;DHT22;6376;48.182;-1.644;2023-03-01T08:53:16;10.70;60.10
12622;DHT22;6376;48.182;-1.644;2023-03-01T08:55:41;10.70;60.20
12622;DHT22;6376;48.182;-1.644;2023-03-01T08:58:07;10.60;60.30
12622;DHT22;6376;48.182;-1.644;2023-03-01T09:00:33;10.50;60.50
12622;DHT22;6376;48.182;-1.644;2023-03-01T09:03:00;10.50;60.60
12622;DHT22;6376;48.182;-1.644;2023-03-01T09:05:26;10.40;60.60
12622;DHT22;6376;48.182;-1.644;2023-03-01T09:07:52;10.40;60.80
12622;DHT22;6376;48.182;-1.644;2023-03-01T09:10:17;10.30;60.80
12622;DHT22;6376;48.182;-1.644;2023-03-01T09:12:43;10.40;61.00
12622;DHT22;6376;48.182;-1.644;2023-03-01T09:15:09;10.40;60.80
12622;DHT22;6376;48.182;-1.644;2023-03-01T09:17:35;10.40;60.50
12622;DHT22;6376;48.182;-1.644;2023-03-01T09:20:00;10.50;60.40
12622;DHT22;6376;48.182;-1.644;2023-03-01T09:22:26;10.50;60.00
12622;DHT22;6376;48.182;-1.644;2023-03-01T09:24:52;10.60;59.90
12622;DHT22;6376;48.182;-1.644;2023-03-01T09:27:17;10.70;59.80
12622;DHT22;6376;48.182;-1.644;2023-03-01T09:29:44;10.70;59.70
12622;DHT22;6376;48.182;-1.644;2023-03-01T09:32:10;10.70;59.50
12622;DHT22;6376;48.182;-1.644;2023-03-01T09:34:36;10.80;59.50
12622;DHT22;6376;48.182;-1.644;2023-03-01T09:37:21;10.90;59.40
12622;DHT22;6376;48.182;-1.644;2023-03-01T09:39:47;10.90;59.40
12622;DHT22;6376;48.182;-1.644;2023-03-01T09:42:13;10.90;59.30
12622;DHT22;6376;48.182;-1.644;2023-03-01T09:45:06;11.00;59.10
12622;DHT22;6376;48.182;-1.644;2023-03-01T09:47:36;11.10;59.10
12622;DHT22;6376;48.182;-1.644;2023-03-01T09:50:18;11.10;59.00
12622;DHT22;6376;48.182;-1.644;2023-03-01T09:52:59;11.20;58.80
12622;DHT22;6376;48.182;-1.644;2023-03-01T09:55:34;11.20;58.60
12622;DHT22;6376;48.182;-1.644;2023-03-01T10:00:56;11.30;58.20
12622;DHT22;6376;48.182;-1.644;2023-03-01T10:03:27;11.40;58.20
12622;DHT22;6376;48.182;-1.644;2023-03-01T10:05:59;11.40;57.90
12622;DHT22;6376;48.182;-1.644;2023-03-01T10:11:31;11.50;57.70
12622;DHT22;6376;48.182;-1.644;2023-03-01T10:16:55;11.70;57.50
12622;DHT22;6376;48.182;-1.644;2023-03-01T10:19:33;11.70;57.20
12622;DHT22;6376;48.182;-1.644;2023-03-01T10:22:27;11.80;57.20
12622;DHT22;6376;48.182;-1.644;2023-03-01T10:24:58;11.80;57.10
12622;DHT22;6376;48.182;-1.644;2023-03-01T10:27:29;11.80;57.00
12622;DHT22;6376;48.182;-1.644;2023-03-01T10:30:05;11.80;56.90
12622;DHT22;6376;48.182;-1.644;2023-03-01T10:32:36;11.90;56.90
12622;DHT22;6376;48.182;-1.644;2023-03-01T10:35:25;11.90;56.80
12622;DHT22;6376;48.182;-1.644;2023-03-01T10:38:12;11.90;56.60
12622;DHT22;6376;48.182;-1.644;2023-03-01T10:40:59;12.00;56.60
12622;DHT22;6376;48.182;-1.644;2023-03-01T10:43:51;12.00;56.50
12622;DHT22;6376;48.182;-1.644;2023-03-01T10:46:27;12.00;56.40
12622;DHT22;6376;48.182;-1.644;2023-03-01T10:49:14;12.10;56.40
12622;DHT22;6376;48.182;-1.644;2023-03-01T10:51:41;12.20;56.20
12622;DHT22;6376;48.182;-1.644;2023-03-01T10:54:23;12.20;56.20
12622;DHT22;6376;48.182;-1.644;2023-03-01T10:56:55;12.20;56.10
12622;DHT22;6376;48.182;-1.644;2023-03-01T10:59:34;12.20;56.00
12622;DHT22;6376;48.182;-1.644;2023-03-01T11:04:35;12.30;56.10
12622;DHT22;6376;48.182;-1.644;2023-03-01T11:07:02;12.40;56.00
12622;DHT22;6376;48.182;-1.644;2023-03-01T11:09:32;12.40;55.90
12622;DHT22;6376;48.182;-1.644;2023-03-01T11:12:04;12.40;55.90
12622;DHT22;6376;48.182;-1.644;2023-03-01T11:14:37;12.40;55.80
12622;DHT22;6376;48.182;-1.644;2023-03-01T11:17:05;12.50;55.70
12622;DHT22;6376;48.182;-1.644;2023-03-01T11:19:37;12.50;55.80
12622;DHT22;6376;48.182;-1.644;2023-03-01T11:22:07;12.50;55.80
12622;DHT22;6376;48.182;-1.644;2023-03-01T11:24:45;12.50;55.70
12622;DHT22;6376;48.182;-1.644;2023-03-01T11:27:33;12.50;55.70
12622;DHT22;6376;48.182;-1.644;2023-03-01T11:30:22;12.50;55.70
12622;DHT22;6376;48.182;-1.644;2023-03-01T11:35:28;12.60;55.70
12622;DHT22;6376;48.182;-1.644;2023-03-01T11:38:21;12.60;55.80
12622;DHT22;6376;48.182;-1.644;2023-03-01T11:43:25;12.60;55.80
12622;DHT22;6376;48.182;-1.644;2023-03-01T11:48:26;12.60;55.90
12622;DHT22;6376;48.182;-1.644;2023-03-01T11:50:55;12.50;56.10
12622;DHT22;6376;48.182;-1.644;2023-03-01T12:01:41;11.90;57.50
12622;DHT22;6376;48.182;-1.644;2023-03-01T12:04:20;11.80;57.60
12622;DHT22;6376;48.182;-1.644;2023-03-01T12:07:01;11.70;57.90
12622;DHT22;6376;48.182;-1.644;2023-03-01T12:09:44;11.60;58.20
12622;DHT22;6376;48.182;-1.644;2023-03-01T12:25:48;11.30;57.90
12622;DHT22;6376;48.182;-1.644;2023-03-01T12:34:15;11.10;57.80
12622;DHT22;6376;48.182;-1.644;2023-03-01T12:39:50;11.00;58.80
12622;DHT22;6376;48.182;-1.644;2023-03-01T12:48:39;10.90;58.90
12622;DHT22;6376;48.182;-1.644;2023-03-01T12:51:13;10.90;59.40
12622;DHT22;6376;48.182;-1.644;2023-03-01T12:53:42;10.90;59.50
12622;DHT22;6376;48.182;-1.644;2023-03-01T12:56:12;10.90;59.70
12622;DHT22;6376;48.182;-1.644;2023-03-01T13:06:19;10.80;59.60
12622;DHT22;6376;48.182;-1.644;2023-03-01T13:09:09;10.80;59.80
12622;DHT22;6376;48.182;-1.644;2023-03-01T13:11:40;10.80;59.80
12622;DHT22;6376;48.182;-1.644;2023-03-01T13:16:57;10.80;59.90
12622;DHT22;6376;48.182;-1.644;2023-03-01T13:19:25;10.80;60.00
12622;DHT22;6376;48.182;-1.644;2023-03-01T13:21:53;10.80;60.10
12622;DHT22;6376;48.182;-1.644;2023-03-01T13:24:39;10.80;60.00
12622;DHT22;6376;48.182;-1.644;2023-03-01T13:27:11;10.80;60.00
12622;DHT22;6376;48.182;-1.644;2023-03-01T13:29:48;10.70;60.10
12622;DHT22;6376;48.182;-1.644;2023-03-01T13:37:37;10.70;60.20
12622;DHT22;6376;48.182;-1.644;2023-03-01T13:42:52;10.70;60.20
12622;DHT22;6376;48.182;-1.644;2023-03-01T13:47:57;10.60;60.30
12622;DHT22;6376;48.182;-1.644;2023-03-01T13:50:29;10.60;60.20
12622;DHT22;6376;48.182;-1.644;2023-03-01T13:53:04;10.60;60.30
12622;DHT22;6376;48.182;-1.644;2023-03-01T13:55:46;10.60;60.20
12622;DHT22;6376;48.182;-1.644;2023-03-01T13:58:21;10.60;60.50
12622;DHT22;6376;48.182;-1.644;2023-03-01T14:00:47;10.60;60.60
12622;DHT22;6376;48.182;-1.644;2023-03-01T14:03:16;10.60;60.60
12622;DHT22;6376;48.182;-1.644;2023-03-01T14:05:56;10.60;60.60
12622;DHT22;6376;48.182;-1.644;2023-03-01T14:08:25;10.60;60.90
12622;DHT22;6376;48.182;-1.644;2023-03-01T14:13:48;10.60;60.60
12622;DHT22;6376;48.182;-1.644;2023-03-01T14:16:36;10.60;60.60
12622;DHT22;6376;48.182;-1.644;2023-03-01T14:19:25;10.50;60.60
12622;DHT22;6376;48.182;-1.644;2023-03-01T14:24:39;10.50;60.80
12622;DHT22;6376;48.182;-1.644;2023-03-01T14:27:11;10.50;60.80
12622;DHT22;6376;48.182;-1.644;2023-03-01T14:29:38;10.50;60.80
12622;DHT22;6376;48.182;-1.644;2023-03-01T14:32:28;10.50;61.60
12622;DHT22;6376;48.182;-1.644;2023-03-01T14:34:54;10.50;60.80
12622;DHT22;6376;48.182;-1.644;2023-03-01T14:39:46;10.50;60.80
12622;DHT22;6376;48.182;-1.644;2023-03-01T14:42:13;10.50;60.60
12622;DHT22;6376;48.182;-1.644;2023-03-01T14:44:42;10.50;60.70
12622;DHT22;6376;48.182;-1.644;2023-03-01T14:47:34;10.50;60.80
12622;DHT22;6376;48.182;-1.644;2023-03-01T14:52:48;10.50;60.90
12622;DHT22;6376;48.182;-1.644;2023-03-01T14:55:38;10.50;61.00
12622;DHT22;6376;48.182;-1.644;2023-03-01T14:58:13;10.50;61.00
12622;DHT22;6376;48.182;-1.644;2023-03-01T15:00:49;10.50;60.90
12622;DHT22;6376;48.182;-1.644;2023-03-01T15:03:23;10.50;61.00
12622;DHT22;6376;48.182;-1.644;2023-03-01T15:05:50;10.40;61.00
12622;DHT22;6376;48.182;-1.644;2023-03-01T15:08:20;10.40;61.00
12622;DHT22;6376;48.182;-1.644;2023-03-01T15:11:04;10.50;61.20
12622;DHT22;6376;48.182;-1.644;2023-03-01T15:13:35;10.50;61.30
12622;DHT22;6376;48.182;-1.644;2023-03-01T15:16:10;10.50;61.30
12622;DHT22;6376;48.182;-1.644;2023-03-01T15:18:37;10.50;61.20
12622;DHT22;6376;48.182;-1.644;2023-03-01T15:21:18;10.60;61.10
12622;DHT22;6376;48.182;-1.644;2023-03-01T15:24:36;10.60;61.10
12622;DHT22;6376;48.182;-1.644;2023-03-01T15:26:57;10.60;60.90
12622;DHT22;6376;48.182;-1.644;2023-03-01T15:29:28;10.60;60.90
12622;DHT22;6376;48.182;-1.644;2023-03-01T15:34:33;10.60;60.90
12622;DHT22;6376;48.182;-1.644;2023-03-01T15:37:01;10.60;60.80
12622;DHT22;6376;48.182;-1.644;2023-03-01T15:39:40;10.60;60.80
12622;DHT22;6376;48.182;-1.644;2023-03-01T15:45:08;10.60;60.80
12622;DHT22;6376;48.182;-1.644;2023-03-01T15:47:35;10.60;60.80
12622;DHT22;6376;48.182;-1.644;2023-03-01T15:50:01;10.60;60.80
12622;DHT22;6376;48.182;-1.644;2023-03-01T15:52:29;10.60;60.80
12622;DHT22;6376;48.182;-1.644;2023-03-01T15:54:58;10.60;60.90
12622;DHT22;6376;48.182;-1.644;2023-03-01T15:57:24;10.60;60.90
12622;DHT22;6376;48.182;-1.644;2023-03-01T15:59:50;10.50;61.60
12622;DHT22;6376;48.182;-1.644;2023-03-01T16:02:15;10.50;60.80
12622;DHT22;6376;48.182;-1.644;2023-03-01T16:04:41;10.50;60.90
12622;DHT22;6376;48.182;-1.644;2023-03-01T16:07:08;10.50;61.00
12622;DHT22;6376;48.182;-1.644;2023-03-01T16:09:35;10.50;61.20
12622;DHT22;6376;48.182;-1.644;2023-03-01T16:12:01;10.50;61.20
12622;DHT22;6376;48.182;-1.644;2023-03-01T16:14:27;10.50;61.20
12622;DHT22;6376;48.182;-1.644;2023-03-01T16:16:53;10.50;61.30
12622;DHT22;6376;48.182;-1.644;2023-03-01T16:19:18;10.50;61.40
12622;DHT22;6376;48.182;-1.644;2023-03-01T16:21:44;10.50;61.50
12622;DHT22;6376;48.182;-1.644;2023-03-01T16:24:15;10.40;61.50
12622;DHT22;6376;48.182;-1.644;2023-03-01T16:26:40;10.40;61.50
12622;DHT22;6376;48.182;-1.644;2023-03-01T16:29:07;10.40;61.60
12622;DHT22;6376;48.182;-1.644;2023-03-01T16:31:33;10.40;61.70
12622;DHT22;6376;48.182;-1.644;2023-03-01T16:33:59;10.40;61.70
12622;DHT22;6376;48.182;-1.644;2023-03-01T16:36:26;10.40;61.80
12622;DHT22;6376;48.182;-1.644;2023-03-01T16:38:54;10.40;61.80
12622;DHT22;6376;48.182;-1.644;2023-03-01T16:41:21;10.40;61.80
12622;DHT22;6376;48.182;-1.644;2023-03-01T16:43:48;10.40;61.90
12622;DHT22;6376;48.182;-1.644;2023-03-01T16:46:19;10.40;61.90
12622;DHT22;6376;48.182;-1.644;2023-03-01T16:48:46;10.40;61.90
12622;DHT22;6376;48.182;-1.644;2023-03-01T16:51:12;10.30;61.90
12622;DHT22;6376;48.182;-1.644;2023-03-01T16:53:38;10.40;61.90
12622;DHT22;6376;48.182;-1.644;2023-03-01T16:56:06;10.30;61.90
12622;DHT22;6376;48.182;-1.644;2023-03-01T16:58:33;10.30;61.90
12622;DHT22;6376;48.182;-1.644;2023-03-01T17:01:07;10.30;62.00
12622;DHT22;6376;48.182;-1.644;2023-03-01T17:03:33;10.30;62.10
12622;DHT22;6376;48.182;-1.644;2023-03-01T17:06:07;10.30;62.10
12622;DHT22;6376;48.182;-1.644;2023-03-01T17:08:33;10.30;62.10
12622;DHT22;6376;48.182;-1.644;2023-03-01T17:11:14;10.30;62.10
12622;DHT22;6376;48.182;-1.644;2023-03-01T17:13:41;10.30;62.10
12622;DHT22;6376;48.182;-1.644;2023-03-01T17:16:09;10.30;62.20
12622;DHT22;6376;48.182;-1.644;2023-03-01T17:18:35;10.30;62.20
12622;DHT22;6376;48.182;-1.644;2023-03-01T17:21:01;10.30;62.20
12622;DHT22;6376;48.182;-1.644;2023-03-01T17:23:28;10.30;62.40
12622;DHT22;6376;48.182;-1.644;2023-03-01T17:25:54;10.30;62.40
12622;DHT22;6376;48.182;-1.644;2023-03-01T17:28:21;10.30;62.40
12622;DHT22;6376;48.182;-1.644;2023-03-01T17:30:48;10.20;62.30
12622;DHT22;6376;48.182;-1.644;2023-03-01T17:33:14;10.20;62.40
12622;DHT22;6376;48.182;-1.644;2023-03-01T17:35:40;10.20;62.40
12622;DHT22;6376;48.182;-1.644;2023-03-01T17:38:06;10.20;62.50
12622;DHT22;6376;48.182;-1.644;2023-03-01T17:40:32;10.20;62.50
12622;DHT22;6376;48.182;-1.644;2023-03-01T17:42:58;10.20;62.60
12622;DHT22;6376;48.182;-1.644;2023-03-01T17:45:24;10.20;62.60
12622;DHT22;6376;48.182;-1.644;2023-03-01T17:47:49;10.20;62.70
12622;DHT22;6376;48.182;-1.644;2023-03-01T17:50:15;10.20;62.70
12622;DHT22;6376;48.182;-1.644;2023-03-01T17:52:41;10.20;62.60
12622;DHT22;6376;48.182;-1.644;2023-03-01T17:55:07;10.20;62.70
12622;DHT22;6376;48.182;-1.644;2023-03-01T17:57:34;10.20;62.70
12622;DHT22;6376;48.182;-1.644;2023-03-01T17:59:59;10.20;62.70